Koushinmaru — JD3754 — position and weather

sailwx.info

Track history (hours):
 
Tides and Currents Weather Stations Pressure Air Temp Water Temp Dewpoint Dewpoint Depression Visibility Wind Speed Wind Dir Waves Ship Positions

Koushinmaru

Last reported at 2018-Apr-20 07:11 UTC. Time now 2018-Apr-20 16:23 UTC.
Position N 34°25' E 130°52'.

Length 75 m; draft 4.5 m.

Type: Ship. MMSI: 431005815.

Date/timePositionNaut miles runAvg speedWind from/ knotsBaromVisibWave heightAir tempDewpointWater temp
2018-Apr-20 07:11N 34°25' E 130°52'314.4
2018-Apr-20 07:00N 34°23' E 130°50'613.0
2018-Apr-20 06:31N 34°17' E 130°49'713.2
2018-Apr-20 06:00N 34°10' E 130°50'713.2
2018-Apr-20 05:31N 34°04' E 130°51'612.4
2018-Apr-20 05:01N 33°58' E 130°53'4 7.0
2018-Apr-20 04:30N 33°56' E 130°56'510.9
2018-Apr-20 04:00N 33°58' E 131°02'612.6
2018-Apr-20 03:30N 33°55' E 131°09'2 4.6
2018-Apr-20 03:00N 33°56' E 131°11'0 0.0
2018-Apr-20 02:30N 33°56' E 131°11'0 0.0
2018-Apr-20 02:00N 33°56' E 131°11'0 0.1
2018-Apr-20 01:30N 33°56' E 131°11'0 0.0
2018-Apr-20 01:00N 33°56' E 131°11'0 0.0
2018-Apr-20 00:30N 33°56' E 131°11'1 1.0
2018-Apr-20 00:00N 33°56' E 131°12'1 2.9
2018-Apr-19 23:30N 33°55' E 131°11'0 0.0
2018-Apr-19 23:00N 33°55' E 131°11'0 0.0
2018-Apr-19 22:30N 33°55' E 131°11'3 6.9
2018-Apr-19 22:00N 33°56' E 131°07'612.9
2018-Apr-19 21:31N 33°58' E 130°60'612.3
2018-Apr-19 21:00N 33°55' E 130°53'612.6
2018-Apr-19 20:30N 33°58' E 130°46'713.6
2018-Apr-19 20:00N 33°58' E 130°38'713.7
2018-Apr-19 19:31N 33°57' E 130°30'714.1
2018-Apr-19 19:01N 33°55' E 130°22'713.9
2018-Apr-19 18:30N 33°52' E 130°15'714.0
2018-Apr-19 18:01N 33°48' E 130°08'814.1
2018-Apr-19 17:27N 33°44' E 129°60'714.2
2018-Apr-19 16:59N 33°41' E 129°53'714.3
2018-Apr-19 16:31N 33°38' E 129°45'35 1.6
2018-Apr-18 18:17N 33°10' E 129°19'1113.0
2018-Apr-18 17:27N 33°21' E 129°21'511.6
2018-Apr-18 16:59N 33°26' E 129°23'711.6
2018-Apr-18 16:24N 33°31' E 129°29'511.8
2018-Apr-18 15:59N 33°33' E 129°34'612.0
2018-Apr-18 15:30N 33°36' E 129°40'611.8
2018-Apr-18 15:00N 33°38' E 129°47'811.9
2018-Apr-18 14:22N 33°41' E 129°55'512.2
2018-Apr-18 13:57N 33°43' E 130°01'612.5
2018-Apr-18 13:30N 33°46' E 130°07'712.7
2018-Apr-18 12:57N 33°50' E 130°13'612.8
2018-Apr-18 12:30N 33°53' E 130°19'612.6
2018-Apr-18 12:00N 33°56' E 130°26'612.7
2018-Apr-18 11:30N 33°57' E 130°34'612.5
2018-Apr-18 11:00N 33°58' E 130°41'612.5
2018-Apr-18 10:30N 33°58' E 130°49'510.8
2018-Apr-18 10:00N 33°55' E 130°54'4 8.4
2018-Apr-18 09:30N 33°58' E 130°58'3 6.2
2018-Apr-18 09:00N 33°59' E 131°01'612.0
2018-Apr-18 08:30N 33°55' E 131°07'612.3
2018-Apr-18 08:00N 33°52' E 131°13'612.1
2018-Apr-18 07:30N 33°50' E 131°20'612.0
2018-Apr-18 07:00N 33°49' E 131°28'611.8
2018-Apr-18 06:30N 33°48' E 131°35'611.5
2018-Apr-18 06:00N 33°47' E 131°41'611.3
2018-Apr-18 05:30N 33°45' E 131°48'611.9
2018-Apr-18 05:00N 33°44' E 131°55'1312.4
2018-Apr-18 03:58N 33°42' E 132°10'913.1
2018-Apr-18 03:16N 33°45' E 132°21'412.9
2018-Apr-18 02:55N 33°47' E 132°26'512.6
2018-Apr-18 02:30N 33°49' E 132°31'612.1
2018-Apr-18 01:59N 33°54' E 132°37'510.8
2018-Apr-18 01:30N 33°57' E 132°42'510.6
2018-Apr-18 01:00N 34°01' E 132°45'67 5.8
2018-Apr-17 13:34N 34°26' E 134°01'314.6
2018-Apr-17 13:24N 34°27' E 134°03'914.6
2018-Apr-17 12:48N 34°25' E 134°13'514.1
2018-Apr-17 12:26N 34°25' E 134°20'613.8
2018-Apr-17 12:00N 34°27' E 134°26'713.7
2018-Apr-17 11:30N 34°30' E 134°34'713.8
2018-Apr-17 11:00N 34°32' E 134°42'714.6
2018-Apr-17 10:31N 34°35' E 134°50'714.8
2018-Apr-17 10:00N 34°38' E 134°58'714.1
2018-Apr-17 09:30N 34°35' E 135°06'713.6
2018-Apr-17 09:00N 34°36' E 135°15'713.2
2018-Apr-17 08:31N 34°38' E 135°22'3 5.6
2018-Apr-17 07:59N 34°40' E 135°25'0 0.0
2018-Apr-17 07:31N 34°40' E 135°25'0 0.0
2018-Apr-17 07:01N 34°40' E 135°25'0 0.0
2018-Apr-17 06:31N 34°40' E 135°25'0 0.0
2018-Apr-17 06:00N 34°40' E 135°25'0 0.0
2018-Apr-17 05:27N 34°40' E 135°25'0 0.0
2018-Apr-17 05:00N 34°40' E 135°25'0 0.0
2018-Apr-17 04:30N 34°40' E 135°25'1 2.9
2018-Apr-17 04:01N 34°38' E 135°24'5 9.6
2018-Apr-17 03:30N 34°34' E 135°24'2 3.8
2018-Apr-17 03:01N 34°34' E 135°26'0 0.0
2018-Apr-17 02:31N 34°34' E 135°26'0 0.0
2018-Apr-17 02:00N 34°34' E 135°26'0 0.0
2018-Apr-17 01:28N 34°34' E 135°26'0 0.0
2018-Apr-17 01:00N 34°34' E 135°26'0 0.0
2018-Apr-17 00:30N 34°34' E 135°26'0 0.0
2018-Apr-16 23:59N 34°34' E 135°26'0 0.2
2018-Apr-16 23:31N 34°33' E 135°26'5 9.0
2018-Apr-16 23:00N 34°33' E 135°21'2 4.0
2018-Apr-16 22:30N 34°33' E 135°18'0 0.0
2018-Apr-16 22:00N 34°33' E 135°18'0 0.0
2018-Apr-16 21:30N 34°33' E 135°18'0 0.0
2018-Apr-16 21:00N 34°33' E 135°18'0 0.0
2018-Apr-16 20:27N 34°33' E 135°18'0 0.0
2018-Apr-16 20:00N 34°33' E 135°18'0 0.0
2018-Apr-16 19:30N 34°33' E 135°18'0 0.0
2018-Apr-16 19:00N 34°33' E 135°18'0 0.0
2018-Apr-16 18:30N 34°33' E 135°18'0 0.0
2018-Apr-16 18:00N 34°33' E 135°18'0 0.0
2018-Apr-16 17:30N 34°33' E 135°18'0 0.0
2018-Apr-16 17:00N 34°33' E 135°18'0 0.0
2018-Apr-16 16:30N 34°33' E 135°18'3 5.1
2018-Apr-16 16:00N 34°33' E 135°15'612.7
2018-Apr-16 15:30N 34°35' E 135°08'713.4
2018-Apr-16 15:00N 34°37' E 135°00'713.6
2018-Apr-16 14:30N 34°34' E 134°53'612.1
2018-Apr-16 14:01N 34°32' E 134°46'612.6
2018-Apr-16 13:30N 34°30' E 134°39'712.9
2018-Apr-16 13:00N 34°27' E 134°31'912.9
2018-Apr-16 12:16N 34°24' E 134°21'712.3
2018-Apr-16 11:43N 34°24' E 134°12'7510.5
2018-Apr-16 04:32N 34°01' E 132°46'011.2
2018-Apr-16 04:30N 34°01' E 132°46'611.2
2018-Apr-16 04:00N 33°56' E 132°43'4 0.5
2018-Apr-15 20:21N 33°52' E 132°42'0 0.0
2018-Apr-15 19:51N 33°52' E 132°42'0 0.0
2018-Apr-15 19:29N 33°52' E 132°42'0 0.0
2018-Apr-15 18:57N 33°52' E 132°42'0 0.0
2018-Apr-15 18:30N 33°52' E 132°42'0 0.0
2018-Apr-15 17:54N 33°52' E 132°42'0 0.0
2018-Apr-15 17:30N 33°52' E 132°42'0 0.0
2018-Apr-15 17:00N 33°52' E 132°42'0 0.0
2018-Apr-15 16:30N 33°52' E 132°42'0 0.0
2018-Apr-15 16:00N 33°52' E 132°42'0 0.0
2018-Apr-15 15:30N 33°52' E 132°42'0 0.0
2018-Apr-15 15:00N 33°52' E 132°42'0 0.0
2018-Apr-15 14:27N 33°52' E 132°42'0 0.0
2018-Apr-15 13:57N 33°52' E 132°42'0 0.0
2018-Apr-15 13:30N 33°52' E 132°42'0 0.0
2018-Apr-15 12:52N 33°52' E 132°42'0 0.0
2018-Apr-15 03:10N 33°52' E 132°42'0 0.0
2018-Apr-15 02:52N 33°52' E 132°42'0 0.0
2018-Apr-15 02:25N 33°52' E 132°42'0 0.0
2018-Apr-15 01:44N 33°52' E 132°42'0 0.0
2018-Apr-15 01:09N 33°52' E 132°42'0 0.0
2018-Apr-15 00:48N 33°52' E 132°42'0 0.0
2018-Apr-15 00:28N 33°52' E 132°42'0 0.0
2018-Apr-15 00:00N 33°52' E 132°42'0 0.0
2018-Apr-14 23:21N 33°52' E 132°42'0 0.0
2018-Apr-14 16:54N 33°52' E 132°42'0 0.0
2018-Apr-14 16:27N 33°52' E 132°42'0 0.0
2018-Apr-14 15:00N 33°52' E 132°42'0 0.0
2018-Apr-14 14:03N 33°52' E 132°42'0 0.0
2018-Apr-14 13:56N 33°52' E 132°42'0 0.0
2018-Apr-14 05:07N 33°52' E 132°42'0 0.0
2018-Apr-14 04:41N 33°52' E 132°42'0 0.0
2018-Apr-14 04:11N 33°52' E 132°42'0 0.0
2018-Apr-14 03:55N 33°52' E 132°42'0 0.0
2018-Apr-14 03:04N 33°52' E 132°42'0 0.0
2018-Apr-14 02:54N 33°52' E 132°42'2 0.1
2018-Apr-12 23:48N 33°52' E 132°40'0 0.6
2018-Apr-12 23:28N 33°52' E 132°40'1 1.7
2018-Apr-12 22:58N 33°52' E 132°41'0 0.0
2018-Apr-12 22:30N 33°52' E 132°41'0 0.0
2018-Apr-12 22:00N 33°52' E 132°41'0 0.0
2018-Apr-12 21:29N 33°52' E 132°41'0 0.0
2018-Apr-12 20:59N 33°52' E 132°41'0 0.0
2018-Apr-12 20:31N 33°52' E 132°41'0 0.0
2018-Apr-12 20:00N 33°52' E 132°41'0 0.0
2018-Apr-12 19:30N 33°52' E 132°41'0 0.0
2018-Apr-12 19:00N 33°52' E 132°41'0 0.0
2018-Apr-12 18:30N 33°52' E 132°41'0 0.0
2018-Apr-12 17:57N 33°52' E 132°41'0 0.0
2018-Apr-12 17:30N 33°52' E 132°41'0 0.0
2018-Apr-12 17:00N 33°52' E 132°41'0 0.0
2018-Apr-12 16:29N 33°52' E 132°41'0 0.0
2018-Apr-12 15:58N 33°52' E 132°41'0 0.0
2018-Apr-12 15:30N 33°52' E 132°41'0 0.1
2018-Apr-12 14:58N 33°52' E 132°41'0 0.0
2018-Apr-12 14:21N 33°52' E 132°41'0 0.0
2018-Apr-12 13:59N 33°52' E 132°41'0 0.1
2018-Apr-12 13:29N 33°52' E 132°41'0 0.0
2018-Apr-12 13:00N 33°52' E 132°41'0 0.0
2018-Apr-12 12:30N 33°52' E 132°41'0 0.1
2018-Apr-12 11:56N 33°52' E 132°41'0 0.0
2018-Apr-12 11:29N 33°52' E 132°41'0 0.0
2018-Apr-12 10:58N 33°52' E 132°41'0 0.0
2018-Apr-12 10:24N 33°52' E 132°41'0 0.0
2018-Apr-12 09:57N 33°52' E 132°41'0 0.0
2018-Apr-12 09:29N 33°52' E 132°41'0 0.0
2018-Apr-12 08:54N 33°52' E 132°41'0 0.0
2018-Apr-12 08:24N 33°52' E 132°41'0 0.0
2018-Apr-12 07:59N 33°52' E 132°41'0 0.0
2018-Apr-12 07:29N 33°52' E 132°41'0 0.0
2018-Apr-12 07:00N 33°52' E 132°41'0 0.0
2018-Apr-12 06:23N 33°52' E 132°41'0 0.0
2018-Apr-12 05:55N 33°52' E 132°41'0 0.0
2018-Apr-12 05:27N 33°52' E 132°41'0 0.0
2018-Apr-12 05:00N 33°52' E 132°41'0 0.0
2018-Apr-12 04:29N 33°52' E 132°41'0 0.0
2018-Apr-12 03:57N 33°52' E 132°41'0 0.0
2018-Apr-12 02:09N 33°52' E 132°41'0 0.0
2018-Apr-12 01:22N 33°52' E 132°41'0 0.0
2018-Apr-12 01:00N 33°52' E 132°41'0 0.1
2018-Apr-12 00:29N 33°52' E 132°41'0 0.0
2018-Apr-12 00:00N 33°52' E 132°41'0 0.0
2018-Apr-11 23:10N 33°52' E 132°41'0 0.0
2018-Apr-11 22:50N 33°52' E 132°41'0 0.0
2018-Apr-11 22:26N 33°52' E 132°41'0 0.0
2018-Apr-11 21:59N 33°52' E 132°41'0 0.0
2018-Apr-11 21:30N 33°52' E 132°41'0 0.0
2018-Apr-11 21:00N 33°52' E 132°41'0 0.0
2018-Apr-11 20:30N 33°52' E 132°41'0 0.0
2018-Apr-11 20:00N 33°52' E 132°41'0 0.0
2018-Apr-11 19:30N 33°52' E 132°41'0 0.0
2018-Apr-11 19:00N 33°52' E 132°41'0 0.0
2018-Apr-11 18:29N 33°52' E 132°41'0 0.0
2018-Apr-11 18:00N 33°52' E 132°41'0 0.0
2018-Apr-11 17:30N 33°52' E 132°41'0 0.0
2018-Apr-11 17:00N 33°52' E 132°41'0 0.0
2018-Apr-11 16:30N 33°52' E 132°41'0 0.1
2018-Apr-11 15:56N 33°52' E 132°41'1 1.2
2018-Apr-11 15:30N 33°52' E 132°41'612.1
2018-Apr-11 15:00N 33°49' E 132°34'1512.6
2018-Apr-11 13:48N 33°43' E 132°17'2412.9
2018-Apr-11 11:57N 33°44' E 131°49'713.9
2018-Apr-11 11:26N 33°46' E 131°40'613.7
2018-Apr-11 11:00N 33°47' E 131°33'713.5
2018-Apr-11 10:30N 33°49' E 131°25'713.2
2018-Apr-11 10:00N 33°50' E 131°17'713.0
2018-Apr-11 09:30N 33°52' E 131°10'713.3
2018-Apr-11 09:00N 33°56' E 131°04'510.7
2018-Apr-11 08:30N 33°57' E 130°57'4 8.5
2018-Apr-11 08:00N 33°56' E 130°52'612.7
2018-Apr-11 07:30N 33°58' E 130°45'713.5
2018-Apr-11 07:00N 33°57' E 130°37'713.5
2018-Apr-11 06:30N 33°56' E 130°29'612.6
2018-Apr-11 06:00N 33°51' E 130°25'713.4
2018-Apr-11 05:30N 33°46' E 130°19'612.0
2018-Apr-11 05:00N 33°40' E 130°16'612.3
2018-Apr-11 04:30N 33°37' E 130°23'1 2.5
2018-Apr-11 03:57N 33°37' E 130°25'0 0.0
2018-Apr-11 03:30N 33°37' E 130°25'0 0.0
2018-Apr-11 02:57N 33°37' E 130°25'0 0.0
2018-Apr-11 02:27N 33°37' E 130°25'0 0.0
2018-Apr-11 01:57N 33°37' E 130°25'0 0.0
2018-Apr-11 01:27N 33°37' E 130°25'0 0.0
2018-Apr-11 00:57N 33°37' E 130°25'0 0.0
2018-Apr-11 00:30N 33°37' E 130°25'2 4.2
2018-Apr-11 00:00N 33°37' E 130°22'1 1.9
2018-Apr-10 23:30N 33°38' E 130°21'0 0.0
2018-Apr-10 23:00N 33°38' E 130°21'0 0.0
2018-Apr-10 22:30N 33°38' E 130°21'0 0.0
2018-Apr-10 22:00N 33°38' E 130°21'0 0.0
2018-Apr-10 21:30N 33°38' E 130°21'0 0.1
2018-Apr-10 21:00N 33°38' E 130°21'0 0.0
2018-Apr-10 20:30N 33°38' E 130°21'0 0.0
2018-Apr-10 20:00N 33°38' E 130°21'0 0.1
2018-Apr-10 19:30N 33°38' E 130°21'0 0.0
2018-Apr-10 19:00N 33°38' E 130°21'0 0.0
2018-Apr-10 18:30N 33°38' E 130°21'0 0.0
2018-Apr-10 18:00N 33°38' E 130°21'0 0.1
2018-Apr-10 17:30N 33°38' E 130°21'0 0.1
2018-Apr-10 17:00N 33°38' E 130°21'0 0.0
2018-Apr-10 16:30N 33°38' E 130°21'0 0.1
2018-Apr-10 16:00N 33°38' E 130°21'0 0.1
2018-Apr-10 15:30N 33°38' E 130°21'4 8.2
2018-Apr-10 15:00N 33°40' E 130°17'611.1
2018-Apr-10 14:30N 33°45' E 130°17'612.4
2018-Apr-10 14:00N 33°51' E 130°21'611.7
2018-Apr-10 13:31N 33°56' E 130°24'612.2
2018-Apr-10 13:00N 33°57' E 130°31'612.4
2018-Apr-10 12:30N 33°58' E 130°39'612.3
2018-Apr-10 12:00N 33°58' E 130°46'611.3
2018-Apr-10 11:29N 33°56' E 130°53'4 7.9
2018-Apr-10 11:01N 33°57' E 130°57'5 9.4
2018-Apr-10 10:30N 33°58' E 131°03'612.5
2018-Apr-10 10:00N 33°54' E 131°09'612.6
2018-Apr-10 09:30N 33°51' E 131°16'612.8
2018-Apr-10 09:00N 33°50' E 131°23'612.9
2018-Apr-10 08:30N 33°48' E 131°31'713.1
2018-Apr-10 08:00N 33°47' E 131°39'612.8
2018-Apr-10 07:30N 33°46' E 131°46'  
Track history (hours):
 
Tides and Currents Weather Stations Pressure Air Temp Water Temp Dewpoint Dewpoint Depression Visibility Wind Speed Wind Dir Waves Ship Positions

Koushinmaru

Last reported at 2018-Apr-20 07:11 UTC. Time now 2018-Apr-20 16:23 UTC.
Position N 34°25' E 130°52'.

Length 75 m; draft 4.5 m.

Type: Ship. MMSI: 431005815.

Date/timePositionNaut miles runAvg speedWind from/ knotsBaromVisibWave heightAir tempDewpointWater temp
2018-Apr-20 07:11N 34°25' E 130°52'314.4
2018-Apr-20 07:00N 34°23' E 130°50'613.0
2018-Apr-20 06:31N 34°17' E 130°49'713.2
2018-Apr-20 06:00N 34°10' E 130°50'713.2
2018-Apr-20 05:31N 34°04' E 130°51'612.4
2018-Apr-20 05:01N 33°58' E 130°53'4 7.0
2018-Apr-20 04:30N 33°56' E 130°56'510.9
2018-Apr-20 04:00N 33°58' E 131°02'612.6
2018-Apr-20 03:30N 33°55' E 131°09'2 4.6
2018-Apr-20 03:00N 33°56' E 131°11'0 0.0
2018-Apr-20 02:30N 33°56' E 131°11'0 0.0
2018-Apr-20 02:00N 33°56' E 131°11'0 0.1
2018-Apr-20 01:30N 33°56' E 131°11'0 0.0
2018-Apr-20 01:00N 33°56' E 131°11'0 0.0
2018-Apr-20 00:30N 33°56' E 131°11'1 1.0
2018-Apr-20 00:00N 33°56' E 131°12'1 2.9
2018-Apr-19 23:30N 33°55' E 131°11'0 0.0
2018-Apr-19 23:00N 33°55' E 131°11'0 0.0
2018-Apr-19 22:30N 33°55' E 131°11'3 6.9
2018-Apr-19 22:00N 33°56' E 131°07'612.9
2018-Apr-19 21:31N 33°58' E 130°60'612.3
2018-Apr-19 21:00N 33°55' E 130°53'612.6
2018-Apr-19 20:30N 33°58' E 130°46'713.6
2018-Apr-19 20:00N 33°58' E 130°38'713.7
2018-Apr-19 19:31N 33°57' E 130°30'714.1
2018-Apr-19 19:01N 33°55' E 130°22'713.9
2018-Apr-19 18:30N 33°52' E 130°15'714.0
2018-Apr-19 18:01N 33°48' E 130°08'814.1
2018-Apr-19 17:27N 33°44' E 129°60'714.2
2018-Apr-19 16:59N 33°41' E 129°53'714.3
2018-Apr-19 16:31N 33°38' E 129°45'35 1.6
2018-Apr-18 18:17N 33°10' E 129°19'1113.0
2018-Apr-18 17:27N 33°21' E 129°21'511.6
2018-Apr-18 16:59N 33°26' E 129°23'711.6
2018-Apr-18 16:24N 33°31' E 129°29'511.8
2018-Apr-18 15:59N 33°33' E 129°34'612.0
2018-Apr-18 15:30N 33°36' E 129°40'611.8
2018-Apr-18 15:00N 33°38' E 129°47'811.9
2018-Apr-18 14:22N 33°41' E 129°55'512.2
2018-Apr-18 13:57N 33°43' E 130°01'612.5
2018-Apr-18 13:30N 33°46' E 130°07'712.7
2018-Apr-18 12:57N 33°50' E 130°13'612.8
2018-Apr-18 12:30N 33°53' E 130°19'612.6
2018-Apr-18 12:00N 33°56' E 130°26'612.7
2018-Apr-18 11:30N 33°57' E 130°34'612.5
2018-Apr-18 11:00N 33°58' E 130°41'612.5
2018-Apr-18 10:30N 33°58' E 130°49'510.8
2018-Apr-18 10:00N 33°55' E 130°54'4 8.4
2018-Apr-18 09:30N 33°58' E 130°58'3 6.2
2018-Apr-18 09:00N 33°59' E 131°01'612.0
2018-Apr-18 08:30N 33°55' E 131°07'612.3
2018-Apr-18 08:00N 33°52' E 131°13'612.1
2018-Apr-18 07:30N 33°50' E 131°20'612.0
2018-Apr-18 07:00N 33°49' E 131°28'611.8
2018-Apr-18 06:30N 33°48' E 131°35'611.5
2018-Apr-18 06:00N 33°47' E 131°41'611.3
2018-Apr-18 05:30N 33°45' E 131°48'611.9
2018-Apr-18 05:00N 33°44' E 131°55'1312.4
2018-Apr-18 03:58N 33°42' E 132°10'913.1
2018-Apr-18 03:16N 33°45' E 132°21'412.9
2018-Apr-18 02:55N 33°47' E 132°26'512.6
2018-Apr-18 02:30N 33°49' E 132°31'612.1
2018-Apr-18 01:59N 33°54' E 132°37'510.8
2018-Apr-18 01:30N 33°57' E 132°42'510.6
2018-Apr-18 01:00N 34°01' E 132°45'67 5.8
2018-Apr-17 13:34N 34°26' E 134°01'314.6
2018-Apr-17 13:24N 34°27' E 134°03'914.6
2018-Apr-17 12:48N 34°25' E 134°13'514.1
2018-Apr-17 12:26N 34°25' E 134°20'613.8
2018-Apr-17 12:00N 34°27' E 134°26'713.7
2018-Apr-17 11:30N 34°30' E 134°34'713.8
2018-Apr-17 11:00N 34°32' E 134°42'714.6
2018-Apr-17 10:31N 34°35' E 134°50'714.8
2018-Apr-17 10:00N 34°38' E 134°58'714.1
2018-Apr-17 09:30N 34°35' E 135°06'713.6
2018-Apr-17 09:00N 34°36' E 135°15'713.2
2018-Apr-17 08:31N 34°38' E 135°22'3 5.6
2018-Apr-17 07:59N 34°40' E 135°25'0 0.0
2018-Apr-17 07:31N 34°40' E 135°25'0 0.0
2018-Apr-17 07:01N 34°40' E 135°25'0 0.0
2018-Apr-17 06:31N 34°40' E 135°25'0 0.0
2018-Apr-17 06:00N 34°40' E 135°25'0 0.0
2018-Apr-17 05:27N 34°40' E 135°25'0 0.0
2018-Apr-17 05:00N 34°40' E 135°25'0 0.0
2018-Apr-17 04:30N 34°40' E 135°25'1 2.9
2018-Apr-17 04:01N 34°38' E 135°24'5 9.6
2018-Apr-17 03:30N 34°34' E 135°24'2 3.8
2018-Apr-17 03:01N 34°34' E 135°26'0 0.0
2018-Apr-17 02:31N 34°34' E 135°26'0 0.0
2018-Apr-17 02:00N 34°34' E 135°26'0 0.0
2018-Apr-17 01:28N 34°34' E 135°26'0 0.0
2018-Apr-17 01:00N 34°34' E 135°26'0 0.0
2018-Apr-17 00:30N 34°34' E 135°26'0 0.0
2018-Apr-16 23:59N 34°34' E 135°26'0 0.2
2018-Apr-16 23:31N 34°33' E 135°26'5 9.0
2018-Apr-16 23:00N 34°33' E 135°21'2 4.0
2018-Apr-16 22:30N 34°33' E 135°18'0 0.0
2018-Apr-16 22:00N 34°33' E 135°18'0 0.0
2018-Apr-16 21:30N 34°33' E 135°18'0 0.0
2018-Apr-16 21:00N 34°33' E 135°18'0 0.0
2018-Apr-16 20:27N 34°33' E 135°18'0 0.0
2018-Apr-16 20:00N 34°33' E 135°18'0 0.0
2018-Apr-16 19:30N 34°33' E 135°18'0 0.0
2018-Apr-16 19:00N 34°33' E 135°18'0 0.0
2018-Apr-16 18:30N 34°33' E 135°18'0 0.0
2018-Apr-16 18:00N 34°33' E 135°18'0 0.0
2018-Apr-16 17:30N 34°33' E 135°18'0 0.0
2018-Apr-16 17:00N 34°33' E 135°18'0 0.0
2018-Apr-16 16:30N 34°33' E 135°18'3 5.1
2018-Apr-16 16:00N 34°33' E 135°15'612.7
2018-Apr-16 15:30N 34°35' E 135°08'713.4
2018-Apr-16 15:00N 34°37' E 135°00'713.6
2018-Apr-16 14:30N 34°34' E 134°53'612.1
2018-Apr-16 14:01N 34°32' E 134°46'612.6
2018-Apr-16 13:30N 34°30' E 134°39'712.9
2018-Apr-16 13:00N 34°27' E 134°31'912.9
2018-Apr-16 12:16N 34°24' E 134°21'712.3
2018-Apr-16 11:43N 34°24' E 134°12'7510.5
2018-Apr-16 04:32N 34°01' E 132°46'011.2
2018-Apr-16 04:30N 34°01' E 132°46'611.2
2018-Apr-16 04:00N 33°56' E 132°43'4 0.5
2018-Apr-15 20:21N 33°52' E 132°42'0 0.0
2018-Apr-15 19:51N 33°52' E 132°42'0 0.0
2018-Apr-15 19:29N 33°52' E 132°42'0 0.0
2018-Apr-15 18:57N 33°52' E 132°42'0 0.0
2018-Apr-15 18:30N 33°52' E 132°42'0 0.0
2018-Apr-15 17:54N 33°52' E 132°42'0 0.0
2018-Apr-15 17:30N 33°52' E 132°42'0 0.0
2018-Apr-15 17:00N 33°52' E 132°42'0 0.0
2018-Apr-15 16:30N 33°52' E 132°42'0 0.0
2018-Apr-15 16:00N 33°52' E 132°42'0 0.0
2018-Apr-15 15:30N 33°52' E 132°42'0 0.0
2018-Apr-15 15:00N 33°52' E 132°42'0 0.0
2018-Apr-15 14:27N 33°52' E 132°42'0 0.0
2018-Apr-15 13:57N 33°52' E 132°42'0 0.0
2018-Apr-15 13:30N 33°52' E 132°42'0 0.0
2018-Apr-15 12:52N 33°52' E 132°42'0 0.0
2018-Apr-15 03:10N 33°52' E 132°42'0 0.0
2018-Apr-15 02:52N 33°52' E 132°42'0 0.0
2018-Apr-15 02:25N 33°52' E 132°42'0 0.0
2018-Apr-15 01:44N 33°52' E 132°42'0 0.0
2018-Apr-15 01:09N 33°52' E 132°42'0 0.0
2018-Apr-15 00:48N 33°52' E 132°42'0 0.0
2018-Apr-15 00:28N 33°52' E 132°42'0 0.0
2018-Apr-15 00:00N 33°52' E 132°42'0 0.0
2018-Apr-14 23:21N 33°52' E 132°42'0 0.0
2018-Apr-14 16:54N 33°52' E 132°42'0 0.0
2018-Apr-14 16:27N 33°52' E 132°42'0 0.0
2018-Apr-14 15:00N 33°52' E 132°42'0 0.0
2018-Apr-14 14:03N 33°52' E 132°42'0 0.0
2018-Apr-14 13:56N 33°52' E 132°42'0 0.0
2018-Apr-14 05:07N 33°52' E 132°42'0 0.0
2018-Apr-14 04:41N 33°52' E 132°42'0 0.0
2018-Apr-14 04:11N 33°52' E 132°42'0 0.0
2018-Apr-14 03:55N 33°52' E 132°42'0 0.0
2018-Apr-14 03:04N 33°52' E 132°42'0 0.0
2018-Apr-14 02:54N 33°52' E 132°42'2 0.1
2018-Apr-12 23:48N 33°52' E 132°40'0 0.6
2018-Apr-12 23:28N 33°52' E 132°40'1 1.7
2018-Apr-12 22:58N 33°52' E 132°41'0 0.0
2018-Apr-12 22:30N 33°52' E 132°41'0 0.0
2018-Apr-12 22:00N 33°52' E 132°41'0 0.0
2018-Apr-12 21:29N 33°52' E 132°41'0 0.0
2018-Apr-12 20:59N 33°52' E 132°41'0 0.0
2018-Apr-12 20:31N 33°52' E 132°41'0 0.0
2018-Apr-12 20:00N 33°52' E 132°41'0 0.0
2018-Apr-12 19:30N 33°52' E 132°41'0 0.0
2018-Apr-12 19:00N 33°52' E 132°41'0 0.0
2018-Apr-12 18:30N 33°52' E 132°41'0 0.0
2018-Apr-12 17:57N 33°52' E 132°41'0 0.0
2018-Apr-12 17:30N 33°52' E 132°41'0 0.0
2018-Apr-12 17:00N 33°52' E 132°41'0 0.0
2018-Apr-12 16:29N 33°52' E 132°41'0 0.0
2018-Apr-12 15:58N 33°52' E 132°41'0 0.0
2018-Apr-12 15:30N 33°52' E 132°41'0 0.1
2018-Apr-12 14:58N 33°52' E 132°41'0 0.0
2018-Apr-12 14:21N 33°52' E 132°41'0 0.0
2018-Apr-12 13:59N 33°52' E 132°41'0 0.1
2018-Apr-12 13:29N 33°52' E 132°41'0 0.0
2018-Apr-12 13:00N 33°52' E 132°41'0 0.0
2018-Apr-12 12:30N 33°52' E 132°41'0 0.1
2018-Apr-12 11:56N 33°52' E 132°41'0 0.0
2018-Apr-12 11:29N 33°52' E 132°41'0 0.0
2018-Apr-12 10:58N 33°52' E 132°41'0 0.0
2018-Apr-12 10:24N 33°52' E 132°41'0 0.0
2018-Apr-12 09:57N 33°52' E 132°41'0 0.0
2018-Apr-12 09:29N 33°52' E 132°41'0 0.0
2018-Apr-12 08:54N 33°52' E 132°41'0 0.0
2018-Apr-12 08:24N 33°52' E 132°41'0 0.0
2018-Apr-12 07:59N 33°52' E 132°41'0 0.0
2018-Apr-12 07:29N 33°52' E 132°41'0 0.0
2018-Apr-12 07:00N 33°52' E 132°41'0 0.0
2018-Apr-12 06:23N 33°52' E 132°41'0 0.0
2018-Apr-12 05:55N 33°52' E 132°41'0 0.0
2018-Apr-12 05:27N 33°52' E 132°41'0 0.0
2018-Apr-12 05:00N 33°52' E 132°41'0 0.0
2018-Apr-12 04:29N 33°52' E 132°41'0 0.0
2018-Apr-12 03:57N 33°52' E 132°41'0 0.0
2018-Apr-12 02:09N 33°52' E 132°41'0 0.0
2018-Apr-12 01:22N 33°52' E 132°41'0 0.0
2018-Apr-12 01:00N 33°52' E 132°41'0 0.1
2018-Apr-12 00:29N 33°52' E 132°41'0 0.0
2018-Apr-12 00:00N 33°52' E 132°41'0 0.0
2018-Apr-11 23:10N 33°52' E 132°41'0 0.0
2018-Apr-11 22:50N 33°52' E 132°41'0 0.0
2018-Apr-11 22:26N 33°52' E 132°41'0 0.0
2018-Apr-11 21:59N 33°52' E 132°41'0 0.0
2018-Apr-11 21:30N 33°52' E 132°41'0 0.0
2018-Apr-11 21:00N 33°52' E 132°41'0 0.0
2018-Apr-11 20:30N 33°52' E 132°41'0 0.0
2018-Apr-11 20:00N 33°52' E 132°41'0 0.0
2018-Apr-11 19:30N 33°52' E 132°41'0 0.0
2018-Apr-11 19:00N 33°52' E 132°41'0 0.0
2018-Apr-11 18:29N 33°52' E 132°41'0 0.0
2018-Apr-11 18:00N 33°52' E 132°41'0 0.0
2018-Apr-11 17:30N 33°52' E 132°41'0 0.0
2018-Apr-11 17:00N 33°52' E 132°41'0 0.0
2018-Apr-11 16:30N 33°52' E 132°41'0 0.1
2018-Apr-11 15:56N 33°52' E 132°41'1 1.2
2018-Apr-11 15:30N 33°52' E 132°41'612.1
2018-Apr-11 15:00N 33°49' E 132°34'1512.6
2018-Apr-11 13:48N 33°43' E 132°17'2412.9
2018-Apr-11 11:57N 33°44' E 131°49'713.9
2018-Apr-11 11:26N 33°46' E 131°40'613.7
2018-Apr-11 11:00N 33°47' E 131°33'713.5
2018-Apr-11 10:30N 33°49' E 131°25'713.2
2018-Apr-11 10:00N 33°50' E 131°17'713.0
2018-Apr-11 09:30N 33°52' E 131°10'713.3
2018-Apr-11 09:00N 33°56' E 131°04'510.7
2018-Apr-11 08:30N 33°57' E 130°57'4 8.5
2018-Apr-11 08:00N 33°56' E 130°52'612.7
2018-Apr-11 07:30N 33°58' E 130°45'713.5
2018-Apr-11 07:00N 33°57' E 130°37'713.5
2018-Apr-11 06:30N 33°56' E 130°29'612.6
2018-Apr-11 06:00N 33°51' E 130°25'713.4
2018-Apr-11 05:30N 33°46' E 130°19'612.0
2018-Apr-11 05:00N 33°40' E 130°16'612.3
2018-Apr-11 04:30N 33°37' E 130°23'1 2.5
2018-Apr-11 03:57N 33°37' E 130°25'0 0.0
2018-Apr-11 03:30N 33°37' E 130°25'0 0.0
2018-Apr-11 02:57N 33°37' E 130°25'0 0.0
2018-Apr-11 02:27N 33°37' E 130°25'0 0.0
2018-Apr-11 01:57N 33°37' E 130°25'0 0.0
2018-Apr-11 01:27N 33°37' E 130°25'0 0.0
2018-Apr-11 00:57N 33°37' E 130°25'0 0.0
2018-Apr-11 00:30N 33°37' E 130°25'2 4.2
2018-Apr-11 00:00N 33°37' E 130°22'1 1.9
2018-Apr-10 23:30N 33°38' E 130°21'0 0.0
2018-Apr-10 23:00N 33°38' E 130°21'0 0.0
2018-Apr-10 22:30N 33°38' E 130°21'0 0.0
2018-Apr-10 22:00N 33°38' E 130°21'0 0.0
2018-Apr-10 21:30N 33°38' E 130°21'0 0.1
2018-Apr-10 21:00N 33°38' E 130°21'0 0.0
2018-Apr-10 20:30N 33°38' E 130°21'0 0.0
2018-Apr-10 20:00N 33°38' E 130°21'0 0.1
2018-Apr-10 19:30N 33°38' E 130°21'0 0.0
2018-Apr-10 19:00N 33°38' E 130°21'0 0.0
2018-Apr-10 18:30N 33°38' E 130°21'0 0.0
2018-Apr-10 18:00N 33°38' E 130°21'0 0.1
2018-Apr-10 17:30N 33°38' E 130°21'0 0.1
2018-Apr-10 17:00N 33°38' E 130°21'0 0.0
2018-Apr-10 16:30N 33°38' E 130°21'0 0.1
2018-Apr-10 16:00N 33°38' E 130°21'0 0.1
2018-Apr-10 15:30N 33°38' E 130°21'4 8.2
2018-Apr-10 15:00N 33°40' E 130°17'611.1
2018-Apr-10 14:30N 33°45' E 130°17'612.4
2018-Apr-10 14:00N 33°51' E 130°21'611.7
2018-Apr-10 13:31N 33°56' E 130°24'612.2
2018-Apr-10 13:00N 33°57' E 130°31'612.4
2018-Apr-10 12:30N 33°58' E 130°39'612.3
2018-Apr-10 12:00N 33°58' E 130°46'611.3
2018-Apr-10 11:29N 33°56' E 130°53'4 7.9
2018-Apr-10 11:01N 33°57' E 130°57'5 9.4
2018-Apr-10 10:30N 33°58' E 131°03'612.5
2018-Apr-10 10:00N 33°54' E 131°09'612.6
2018-Apr-10 09:30N 33°51' E 131°16'612.8
2018-Apr-10 09:00N 33°50' E 131°23'612.9
2018-Apr-10 08:30N 33°48' E 131°31'713.1
2018-Apr-10 08:00N 33°47' E 131°39'612.8
2018-Apr-10 07:30N 33°46' E 131°46'  

Dump ship's entire track history